Time,TemperatureF,DewpointF,PressureIn,WindDirection,WindDirectionDegrees,WindSpeedMPH,WindSpeedGustMPH,Humidity,HourlyPrecipIn,Conditions,Clouds,dailyrainin,SoftwareType,DateUTC
2013-09-19 00:00:00,70.6,66.7,29.88,South,184,9.6,-999.0,86,0.00,,,0.00,SSEC-RIG,2013-09-19 05:00:00,
2013-09-19 00:05:00,70.6,66.7,29.88,South,183,12.1,-999.0,86,0.00,,,0.00,SSEC-RIG,2013-09-19 05:05:00,
2013-09-19 00:10:00,70.5,66.7,29.88,South,188,11.8,19.0,87,0.00,,,0.00,SSEC-RIG,2013-09-19 05:10:00,
2013-09-19 00:15:00,70.5,66.7,29.88,South,183,12.6,16.5,87,0.00,,,0.00,SSEC-RIG,2013-09-19 05:15:00,
2013-09-19 00:20:00,70.5,66.6,29.87,South,185,13.8,16.4,87,0.00,,,0.00,SSEC-RIG,2013-09-19 05:20:00,
2013-09-19 00:25:00,70.3,66.6,29.87,South,188,12.8,16.1,87,0.00,,,0.00,SSEC-RIG,2013-09-19 05:25:00,
2013-09-19 00:30:00,70.2,66.6,29.87,South,187,13.4,17.0,87,0.00,,,0.00,SSEC-RIG,2013-09-19 05:30:00,
2013-09-19 00:35:00,70.2,66.5,29.87,South,188,13.7,16.7,87,0.00,,,0.00,SSEC-RIG,2013-09-19 05:35:00,
2013-09-19 00:40:00,70.1,66.5,29.87,South,186,13.8,17.3,88,0.00,,,0.00,SSEC-RIG,2013-09-19 05:40:00,
2013-09-19 00:45:00,70.0,66.5,29.87,South,191,12.9,16.3,88,0.00,,,0.00,SSEC-RIG,2013-09-19 05:45:00,
2013-09-19 00:50:00,70.0,66.6,29.87,South,190,12.5,17.0,88,0.00,,,0.00,SSEC-RIG,2013-09-19 05:50:00,
2013-09-19 00:55:00,70.0,66.6,29.87,South,191,12.0,-999.0,88,0.00,,,0.00,SSEC-RIG,2013-09-19 05:55:00,
2013-09-19 01:00:00,70.1,66.7,29.87,South,185,12.3,17.7,88,0.00,,,0.00,SSEC-RIG,2013-09-19 06:00:00,
2013-09-19 01:05:00,70.1,66.8,29.87,South,188,12.0,-999.0,88,0.00,,,0.00,SSEC-RIG,2013-09-19 06:05:00,
2013-09-19 01:10:00,70.1,66.9,29.87,South,189,11.8,-999.0,88,0.00,,,0.00,SSEC-RIG,2013-09-19 06:10:00,
2013-09-19 01:15:00,70.2,66.9,29.87,South,186,10.9,-999.0,88,0.00,,,0.00,SSEC-RIG,2013-09-19 06:15:00,
2013-09-19 01:20:00,70.3,67.0,29.87,South,185,11.4,-999.0,88,0.00,,,0.00,SSEC-RIG,2013-09-19 06:20:00,
2013-09-19 01:25:00,70.3,67.1,29.87,South,186,12.4,17.3,89,0.00,,,0.00,SSEC-RIG,2013-09-19 06:25:00,
2013-09-19 01:30:00,70.3,67.1,29.87,SSW,192,11.9,-999.0,89,0.00,,,0.00,SSEC-RIG,2013-09-19 06:30:00,
2013-09-19 01:35:00,70.3,67.2,29.87,SSW,196,11.9,17.6,89,0.00,,,0.00,SSEC-RIG,2013-09-19 06:35:00,
2013-09-19 01:40:00,70.4,67.2,29.87,SSW,195,13.4,17.8,89,0.00,,,0.00,SSEC-RIG,2013-09-19 06:40:00,
2013-09-19 01:45:00,70.3,67.2,29.87,SSW,194,12.3,17.5,89,0.00,,,0.00,SSEC-RIG,2013-09-19 06:45:00,
2013-09-19 01:50:00,70.2,67.2,29.87,SSW,193,12.9,17.7,89,0.00,,,0.00,SSEC-RIG,2013-09-19 06:50:00,
2013-09-19 01:55:00,70.1,67.2,29.87,SSW,194,12.2,17.3,89,0.00,,,0.00,SSEC-RIG,2013-09-19 06:55:00,
2013-09-19 02:00:00,70.2,67.3,29.87,SSW,193,13.7,18.3,89,0.00,,,0.00,SSEC-RIG,2013-09-19 07:00:00,
2013-09-19 02:05:00,70.1,67.2,29.87,South,191,11.4,16.5,90,0.00,,,0.00,SSEC-RIG,2013-09-19 07:05:00,
2013-09-19 02:10:00,70.1,67.3,29.87,South,190,13.1,17.5,90,0.00,,,0.00,SSEC-RIG,2013-09-19 07:10:00,
2013-09-19 02:15:00,70.0,67.3,29.87,South,190,13.3,17.5,90,0.00,,,0.00,SSEC-RIG,2013-09-19 07:15:00,
2013-09-19 02:20:00,69.9,67.3,29.87,South,190,11.4,16.0,90,0.00,,,0.00,SSEC-RIG,2013-09-19 07:20:00,
2013-09-19 02:25:00,69.9,67.3,29.86,SSW,192,13.1,16.8,91,0.00,,,0.00,SSEC-RIG,2013-09-19 07:25:00,
2013-09-19 02:30:00,69.8,67.3,29.86,South,190,13.1,16.5,91,0.00,,,0.00,SSEC-RIG,2013-09-19 07:30:00,
2013-09-19 02:35:00,69.7,67.3,29.86,SSW,192,12.5,16.7,91,0.00,,,0.00,SSEC-RIG,2013-09-19 07:35:00,
2013-09-19 02:40:00,69.6,67.3,29.86,South,190,13.2,16.9,91,0.00,,,0.00,SSEC-RIG,2013-09-19 07:40:00,
2013-09-19 02:45:00,69.6,67.3,29.86,SSW,192,12.5,16.0,91,0.00,,,0.00,SSEC-RIG,2013-09-19 07:45:00,
2013-09-19 02:50:00,69.6,67.3,29.86,SSW,195,13.0,18.2,91,0.00,,,0.00,SSEC-RIG,2013-09-19 07:50:00,
2013-09-19 02:55:00,69.6,67.3,29.86,South,191,14.4,17.8,91,0.00,,,0.00,SSEC-RIG,2013-09-19 07:55:00,
2013-09-19 03:00:00,69.6,67.3,29.86,SSW,193,12.8,20.4,91,0.00,,,0.00,SSEC-RIG,2013-09-19 08:00:00,
2013-09-19 03:05:00,69.6,67.3,29.85,SSW,192,13.1,17.2,92,0.00,,,0.00,SSEC-RIG,2013-09-19 08:05:00,
2013-09-19 03:10:00,69.5,67.3,29.85,SSW,192,12.5,-999.0,92,0.00,,,0.00,SSEC-RIG,2013-09-19 08:10:00,
2013-09-19 03:15:00,69.5,67.3,29.85,SSW,192,13.6,16.5,92,0.00,,,0.00,SSEC-RIG,2013-09-19 08:15:00,
2013-09-19 03:20:00,69.5,67.3,29.85,South,189,13.7,17.3,92,0.00,,,0.00,SSEC-RIG,2013-09-19 08:20:00,
2013-09-19 03:25:00,69.4,67.3,29.85,South,189,13.2,-999.0,92,0.00,,,0.00,SSEC-RIG,2013-09-19 08:25:00,
2013-09-19 03:30:00,69.4,67.3,29.85,South,186,13.6,17.3,92,0.00,,,0.00,SSEC-RIG,2013-09-19 08:30:00,
2013-09-19 03:35:00,69.3,67.4,29.85,South,189,14.4,18.6,92,0.00,,,0.00,SSEC-RIG,2013-09-19 08:35:00,
2013-09-19 03:40:00,69.3,67.3,29.85,South,188,13.2,16.6,92,0.00,,,0.00,SSEC-RIG,2013-09-19 08:40:00,
2013-09-19 03:45:00,69.2,67.4,29.85,SSW,192,13.3,17.4,93,0.00,,,0.00,SSEC-RIG,2013-09-19 08:45:00,
2013-09-19 03:50:00,69.4,67.4,29.86,SSW,197,14.9,18.2,92,0.00,,,0.00,SSEC-RIG,2013-09-19 08:50:00,
2013-09-19 03:55:00,69.4,67.4,29.86,SSW,202,14.2,18.4,92,0.00,,,0.00,SSEC-RIG,2013-09-19 08:55:00,
2013-09-19 04:00:00,69.4,67.4,29.87,SSW,208,14.5,20.1,92,0.00,,,0.00,SSEC-RIG,2013-09-19 09:00:00,
2013-09-19 04:05:00,69.5,67.5,29.87,SSW,211,17.4,22.7,92,0.00,,,0.00,SSEC-RIG,2013-09-19 09:05:00,
2013-09-19 04:10:00,69.6,67.5,29.86,SW,221,21.1,27.0,92,0.00,,,0.00,SSEC-RIG,2013-09-19 09:10:00,
2013-09-19 04:15:00,69.9,67.6,29.86,SW,230,21.3,30.6,91,0.01,,,0.01,SSEC-RIG,2013-09-19 09:15:00,
2013-09-19 04:20:00,70.2,67.8,29.86,SW,230,27.7,34.4,91,0.00,,,0.01,SSEC-RIG,2013-09-19 09:20:00,
2013-09-19 04:25:00,70.0,67.2,29.85,WSW,240,25.5,34.0,90,0.01,,,0.02,SSEC-RIG,2013-09-19 09:25:00,
2013-09-19 04:30:00,69.9,66.8,29.85,WSW,245,24.4,33.8,89,0.03,,,0.05,SSEC-RIG,2013-09-19 09:30:00,
2013-09-19 04:35:00,69.7,66.7,29.85,WSW,239,23.1,27.4,89,0.03,,,0.08,SSEC-RIG,2013-09-19 09:35:00,
2013-09-19 04:40:00,69.2,66.8,29.85,SW,232,16.8,23.0,91,0.00,,,0.08,SSEC-RIG,2013-09-19 09:40:00,
2013-09-19 04:45:00,69.1,66.7,29.85,SW,227,14.8,20.3,91,0.00,,,0.08,SSEC-RIG,2013-09-19 09:45:00,
2013-09-19 04:50:00,68.8,66.7,29.85,SSW,204,15.8,18.9,92,0.01,,,0.09,SSEC-RIG,2013-09-19 09:50:00,
2013-09-19 04:55:00,68.5,66.7,29.85,SSW,198,15.5,20.1,93,0.00,,,0.09,SSEC-RIG,2013-09-19 09:55:00,
2013-09-19 05:00:00,68.4,66.6,29.85,SSW,207,14.4,17.5,93,0.01,,,0.10,SSEC-RIG,2013-09-19 10:00:00,
2013-09-19 05:05:00,68.4,66.4,29.84,SSW,204,12.9,-999.0,92,0.00,,,0.10,SSEC-RIG,2013-09-19 10:05:00,
2013-09-19 05:10:00,68.7,65.8,29.83,SSW,206,12.1,-999.0,89,0.00,,,0.10,SSEC-RIG,2013-09-19 10:10:00,
2013-09-19 05:15:00,68.9,65.3,29.84,SSW,209,12.3,-999.0,88,0.01,,,0.11,SSEC-RIG,2013-09-19 10:15:00,
2013-09-19 05:20:00,69.2,65.3,29.85,SW,218,13.1,-999.0,86,0.01,,,0.12,SSEC-RIG,2013-09-19 10:20:00,
2013-09-19 05:25:00,68.9,65.6,29.86,WSW,246,18.6,26.3,88,0.03,,,0.15,SSEC-RIG,2013-09-19 10:25:00,
2013-09-19 05:30:00,69.0,66.0,29.87,West,270,16.5,23.6,89,0.15,,,0.31,SSEC-RIG,2013-09-19 10:30:00,
2013-09-19 05:35:00,70.0,65.0,29.86,WNW,292,20.9,31.5,83,0.04,,,0.35,SSEC-RIG,2013-09-19 10:35:00,
2013-09-19 05:40:00,72.8,66.2,29.85,SW,234,12.6,16.8,79,0.01,,,0.36,SSEC-RIG,2013-09-19 10:40:00,
2013-09-19 05:45:00,73.4,66.5,29.86,SSW,213,15.4,18.6,78,0.00,,,0.36,SSEC-RIG,2013-09-19 10:45:00,
2013-09-19 05:50:00,70.7,66.8,29.85,SSW,208,22.0,27.7,86,0.16,,,0.52,SSEC-RIG,2013-09-19 10:50:00,
2013-09-19 05:55:00,72.7,66.2,29.85,SSW,194,15.0,24.3,79,0.01,,,0.53,SSEC-RIG,2013-09-19 10:55:00,
2013-09-19 06:00:00,71.4,66.0,29.85,South,172,18.3,22.1,82,0.00,,,0.53,SSEC-RIG,2013-09-19 11:00:00,
2013-09-19 06:05:00,70.9,66.0,29.85,South,169,16.1,19.2,83,0.00,,,0.53,SSEC-RIG,2013-09-19 11:05:00,
2013-09-19 06:10:00,70.7,66.1,29.85,South,176,15.6,19.7,84,0.00,,,0.53,SSEC-RIG,2013-09-19 11:10:00,
2013-09-19 06:15:00,72.2,66.7,29.86,South,190,12.3,16.2,82,0.00,,,0.53,SSEC-RIG,2013-09-19 11:15:00,
2013-09-19 06:20:00,71.6,66.7,29.86,SSW,193,13.6,16.5,84,0.01,,,0.54,SSEC-RIG,2013-09-19 11:20:00,
2013-09-19 06:25:00,71.4,66.8,29.86,South,182,15.3,17.5,84,0.01,,,0.55,SSEC-RIG,2013-09-19 11:25:00,
2013-09-19 06:30:00,71.5,66.9,29.86,South,174,17.0,19.0,85,0.00,,,0.55,SSEC-RIG,2013-09-19 11:30:00,
2013-09-19 06:35:00,70.7,66.9,29.86,SSE,165,16.4,19.6,87,0.00,,,0.55,SSEC-RIG,2013-09-19 11:35:00,
2013-09-19 06:40:00,70.9,67.2,29.86,South,169,15.1,21.6,87,0.00,,,0.55,SSEC-RIG,2013-09-19 11:40:00,
2013-09-19 06:45:00,70.5,67.2,29.87,South,188,9.8,-999.0,88,0.00,,,0.55,SSEC-RIG,2013-09-19 11:45:00,
2013-09-19 06:50:00,70.1,67.3,29.87,South,190,5.7,-999.0,90,0.00,,,0.55,SSEC-RIG,2013-09-19 11:50:00,
2013-09-19 06:55:00,69.9,67.4,29.86,South,175,12.6,16.9,91,0.00,,,0.55,SSEC-RIG,2013-09-19 11:55:00,
2013-09-19 07:00:00,70.3,67.4,29.86,South,172,14.6,16.4,90,0.00,,,0.55,SSEC-RIG,2013-09-19 12:00:00,
2013-09-19 07:05:00,70.2,67.6,29.86,SSE,167,12.0,-999.0,90,0.00,,,0.55,SSEC-RIG,2013-09-19 12:05:00,
2013-09-19 07:10:00,69.9,67.7,29.86,SSE,167,10.7,-999.0,92,0.00,,,0.55,SSEC-RIG,2013-09-19 12:10:00,
2013-09-19 07:15:00,69.8,67.7,29.86,SSE,168,12.3,-999.0,92,0.00,,,0.55,SSEC-RIG,2013-09-19 12:15:00,
2013-09-19 07:20:00,69.7,67.6,29.87,South,174,13.2,18.5,92,0.01,,,0.56,SSEC-RIG,2013-09-19 12:20:00,
2013-09-19 07:25:00,69.5,67.6,29.87,South,171,13.0,-999.0,93,0.00,,,0.56,SSEC-RIG,2013-09-19 12:25:00,
2013-09-19 07:30:00,69.4,67.5,29.86,South,169,11.9,-999.0,93,0.00,,,0.56,SSEC-RIG,2013-09-19 12:30:00,
2013-09-19 07:35:00,69.5,67.6,29.86,SSE,166,11.9,-999.0,93,0.00,,,0.56,SSEC-RIG,2013-09-19 12:35:00,
2013-09-19 07:40:00,69.4,67.5,29.86,South,172,11.7,-999.0,92,0.00,,,0.56,SSEC-RIG,2013-09-19 12:40:00,
2013-09-19 07:45:00,69.3,67.5,29.86,SSE,168,12.5,-999.0,93,0.01,,,0.57,SSEC-RIG,2013-09-19 12:45:00,
2013-09-19 07:50:00,69.1,67.5,29.86,South,170,13.9,17.6,93,0.00,,,0.57,SSEC-RIG,2013-09-19 12:50:00,
2013-09-19 07:55:00,68.9,67.4,29.86,South,172,16.1,20.0,94,0.00,,,0.57,SSEC-RIG,2013-09-19 12:55:00,
2013-09-19 08:00:00,68.8,67.5,29.86,SSE,165,12.6,16.4,95,0.00,,,0.57,SSEC-RIG,2013-09-19 13:00:00,
2013-09-19 08:05:00,68.7,67.6,29.87,South,172,10.4,16.7,95,0.00,,,0.57,SSEC-RIG,2013-09-19 13:05:00,
2013-09-19 08:10:00,68.6,67.6,29.87,South,177,13.0,16.9,95,0.00,,,0.57,SSEC-RIG,2013-09-19 13:10:00,
2013-09-19 08:15:00,68.6,67.6,29.86,SSE,166,11.8,-999.0,96,0.00,,,0.57,SSEC-RIG,2013-09-19 13:15:00,
2013-09-19 08:20:00,68.6,67.6,29.87,SSE,162,11.0,-999.0,96,0.00,,,0.57,SSEC-RIG,2013-09-19 13:20:00,
2013-09-19 08:25:00,68.6,67.6,29.87,SSE,163,10.8,-999.0,96,0.00,,,0.57,SSEC-RIG,2013-09-19 13:25:00,
2013-09-19 08:30:00,68.6,67.6,29.87,SSE,165,12.4,-999.0,96,0.00,,,0.57,SSEC-RIG,2013-09-19 13:30:00,
2013-09-19 08:35:00,68.8,67.7,29.86,SSE,164,12.8,17.1,95,0.00,,,0.57,SSEC-RIG,2013-09-19 13:35:00,
2013-09-19 08:40:00,68.7,67.6,29.86,South,174,13.1,16.3,95,0.00,,,0.57,SSEC-RIG,2013-09-19 13:40:00,
2013-09-19 08:45:00,68.6,67.7,29.86,South,176,12.4,-999.0,96,0.00,,,0.57,SSEC-RIG,2013-09-19 13:45:00,
2013-09-19 08:50:00,68.7,67.8,29.87,South,173,11.5,-999.0,96,0.00,,,0.57,SSEC-RIG,2013-09-19 13:50:00,
2013-09-19 08:55:00,68.8,67.9,29.87,South,177,11.8,-999.0,96,0.00,,,0.57,SSEC-RIG,2013-09-19 13:55:00,
2013-09-19 09:00:00,68.8,67.9,29.88,South,177,11.8,17.5,96,0.00,,,0.57,SSEC-RIG,2013-09-19 14:00:00,
2013-09-19 09:05:00,68.9,68.0,29.87,SSE,168,14.3,18.3,96,0.03,,,0.60,SSEC-RIG,2013-09-19 14:05:00,
2013-09-19 09:10:00,69.0,68.1,29.87,SSE,164,13.2,16.1,96,0.02,,,0.63,SSEC-RIG,2013-09-19 14:10:00,
2013-09-19 09:15:00,69.0,68.2,29.87,SSE,167,15.7,19.5,96,0.01,,,0.64,SSEC-RIG,2013-09-19 14:15:00,
2013-09-19 09:20:00,69.1,68.2,29.87,SSE,167,15.0,19.0,96,0.00,,,0.64,SSEC-RIG,2013-09-19 14:20:00,
2013-09-19 09:25:00,69.1,68.2,29.86,SSE,166,13.3,18.2,96,0.00,,,0.64,SSEC-RIG,2013-09-19 14:25:00,
2013-09-19 09:30:00,69.2,68.3,29.86,SSE,166,14.7,19.3,96,0.00,,,0.64,SSEC-RIG,2013-09-19 14:30:00,
2013-09-19 09:35:00,69.4,68.3,29.86,SSE,165,16.8,20.5,95,0.00,,,0.64,SSEC-RIG,2013-09-19 14:35:00,
2013-09-19 09:40:00,69.6,68.4,29.86,South,171,14.9,19.8,95,0.00,,,0.64,SSEC-RIG,2013-09-19 14:40:00,
2013-09-19 09:45:00,69.8,68.4,29.86,South,170,15.5,20.5,95,0.00,,,0.64,SSEC-RIG,2013-09-19 14:45:00,
2013-09-19 09:50:00,69.8,68.4,29.86,South,181,15.0,20.0,94,0.00,,,0.64,SSEC-RIG,2013-09-19 14:50:00,
2013-09-19 09:55:00,69.9,68.5,29.86,South,175,13.1,17.1,94,0.00,,,0.64,SSEC-RIG,2013-09-19 14:55:00,
2013-09-19 10:00:00,70.2,68.6,29.87,South,171,11.2,-999.0,94,0.00,,,0.64,SSEC-RIG,2013-09-19 15:00:00,
2013-09-19 10:05:00,70.2,68.6,29.87,SSE,168,10.6,-999.0,94,0.00,,,0.64,SSEC-RIG,2013-09-19 15:05:00,
2013-09-19 10:10:00,70.2,68.7,29.88,South,176,10.9,-999.0,94,0.00,,,0.64,SSEC-RIG,2013-09-19 15:10:00,
2013-09-19 10:15:00,70.2,68.7,29.88,South,186,9.8,-999.0,94,0.00,,,0.64,SSEC-RIG,2013-09-19 15:15:00,
2013-09-19 10:20:00,70.2,68.8,29.88,South,186,11.2,-999.0,94,0.00,,,0.64,SSEC-RIG,2013-09-19 15:20:00,
2013-09-19 10:25:00,70.3,68.9,29.87,South,171,12.1,-999.0,94,0.00,,,0.64,SSEC-RIG,2013-09-19 15:25:00,
2013-09-19 10:35:00,70.8,69.2,29.87,South,178,10.8,-999.0,94,0.00,,,0.64,SSEC-RIG,2013-09-19 15:35:00,
2013-09-19 10:40:00,71.3,69.6,29.87,South,176,8.2,-999.0,93,0.00,,,0.64,SSEC-RIG,2013-09-19 15:40:00,
2013-09-19 10:45:00,71.3,69.4,29.87,SSE,168,12.5,-999.0,93,0.00,,,0.64,SSEC-RIG,2013-09-19 15:45:00,
2013-09-19 10:50:00,71.5,69.6,29.86,SSE,168,9.7,-999.0,93,0.00,,,0.64,SSEC-RIG,2013-09-19 15:50:00,
2013-09-19 10:55:00,71.7,69.6,29.86,SSE,167,12.0,-999.0,92,0.00,,,0.64,SSEC-RIG,2013-09-19 15:55:00,
2013-09-19 11:00:00,72.0,69.9,29.86,South,172,11.9,-999.0,92,0.00,,,0.64,SSEC-RIG,2013-09-19 16:00:00,
2013-09-19 11:05:00,72.3,69.8,29.86,South,177,12.5,-999.0,91,0.00,,,0.64,SSEC-RIG,2013-09-19 16:05:00,
2013-09-19 11:10:00,72.7,69.5,29.85,South,174,13.2,17.7,89,0.00,,,0.64,SSEC-RIG,2013-09-19 16:10:00,
2013-09-19 11:15:00,72.9,69.5,29.85,South,176,13.8,18.0,88,0.00,,,0.64,SSEC-RIG,2013-09-19 16:15:00,
2013-09-19 11:20:00,73.0,69.5,29.85,South,176,15.8,20.0,88,0.00,,,0.64,SSEC-RIG,2013-09-19 16:20:00,
2013-09-19 11:25:00,72.9,69.7,29.84,South,176,15.4,19.9,89,0.00,,,0.64,SSEC-RIG,2013-09-19 16:25:00,
2013-09-19 11:30:00,73.0,69.7,29.85,South,177,13.5,19.5,88,0.00,,,0.64,SSEC-RIG,2013-09-19 16:30:00,
2013-09-19 11:35:00,73.1,69.8,29.84,South,175,14.8,19.2,88,0.00,,,0.64,SSEC-RIG,2013-09-19 16:35:00,
2013-09-19 11:40:00,73.2,69.6,29.84,South,176,18.0,22.0,88,0.00,,,0.64,SSEC-RIG,2013-09-19 16:40:00,
2013-09-19 11:45:00,73.3,69.5,29.84,South,178,14.7,19.7,87,0.00,,,0.64,SSEC-RIG,2013-09-19 16:45:00,
2013-09-19 11:50:00,73.3,69.6,29.84,South,174,14.9,19.1,87,0.00,,,0.64,SSEC-RIG,2013-09-19 16:50:00,
2013-09-19 11:55:00,73.4,69.7,29.83,South,173,15.3,20.2,87,0.00,,,0.64,SSEC-RIG,2013-09-19 16:55:00,
2013-09-19 12:00:00,73.5,69.7,29.83,South,177,15.6,18.6,87,0.00,,,0.64,SSEC-RIG,2013-09-19 17:00:00,
2013-09-19 12:05:00,73.7,69.7,29.83,South,177,13.5,18.0,87,0.00,,,0.64,SSEC-RIG,2013-09-19 17:05:00,
2013-09-19 12:10:00,74.0,69.9,29.84,South,184,10.9,17.0,86,0.00,,,0.64,SSEC-RIG,2013-09-19 17:10:00,
2013-09-19 12:20:00,74.7,70.0,29.84,South,186,12.0,18.4,84,0.00,,,0.64,SSEC-RIG,2013-09-19 17:20:00,
2013-09-19 12:25:00,75.2,69.9,29.84,South,185,14.0,20.5,83,0.00,,,0.64,SSEC-RIG,2013-09-19 17:25:00,
2013-09-19 12:30:00,75.5,70.0,29.84,South,185,12.5,18.8,82,0.00,,,0.64,SSEC-RIG,2013-09-19 17:30:00,
2013-09-19 12:35:00,75.6,70.1,29.83,South,183,13.3,18.6,82,0.00,,,0.64,SSEC-RIG,2013-09-19 17:35:00,
2013-09-19 12:40:00,75.9,70.2,29.83,South,177,10.9,16.4,82,0.00,,,0.64,SSEC-RIG,2013-09-19 17:40:00,
2013-09-19 12:45:00,75.8,70.1,29.83,South,179,13.8,20.4,82,0.00,,,0.64,SSEC-RIG,2013-09-19 17:45:00,
2013-09-19 12:50:00,75.9,69.9,29.83,South,181,16.0,19.8,80,0.00,,,0.64,SSEC-RIG,2013-09-19 17:50:00,
2013-09-19 12:55:00,76.3,69.8,29.83,South,186,16.7,22.1,79,0.00,,,0.64,SSEC-RIG,2013-09-19 17:55:00,
2013-09-19 13:05:00,77.3,69.5,29.82,South,190,13.9,18.5,76,0.00,,,0.64,SSEC-RIG,2013-09-19 18:05:00,
2013-09-19 13:10:00,78.2,69.9,29.82,SSW,198,15.2,22.4,75,0.00,,,0.64,SSEC-RIG,2013-09-19 18:10:00,
2013-09-19 13:15:00,78.8,69.8,29.82,SSW,196,16.7,22.6,73,0.00,,,0.64,SSEC-RIG,2013-09-19 18:15:00,
2013-09-19 13:20:00,79.3,70.1,29.82,South,188,12.7,18.6,73,0.00,,,0.64,SSEC-RIG,2013-09-19 18:20:00,
2013-09-19 13:25:00,79.4,69.9,29.81,South,189,16.6,21.8,72,0.00,,,0.64,SSEC-RIG,2013-09-19 18:25:00,
2013-09-19 13:30:00,79.6,69.7,29.81,SSW,193,17.4,22.6,71,0.00,,,0.64,SSEC-RIG,2013-09-19 18:30:00,
2013-09-19 13:35:00,79.7,69.6,29.81,SSW,194,18.2,24.1,70,0.00,,,0.64,SSEC-RIG,2013-09-19 18:35:00,
2013-09-19 13:40:00,79.9,69.4,29.80,SSW,198,17.4,25.4,69,0.00,,,0.64,SSEC-RIG,2013-09-19 18:40:00,
2013-09-19 13:45:00,80.0,69.6,29.80,SSW,204,13.1,18.7,70,0.00,,,0.64,SSEC-RIG,2013-09-19 18:45:00,
2013-09-19 13:50:00,80.5,69.8,29.80,SSW,205,15.3,23.4,69,0.00,,,0.64,SSEC-RIG,2013-09-19 18:50:00,
2013-09-19 13:55:00,80.9,70.0,29.80,South,188,16.1,24.1,69,0.00,,,0.64,SSEC-RIG,2013-09-19 18:55:00,
2013-09-19 14:00:00,81.2,70.1,29.80,South,191,13.8,21.2,68,0.00,,,0.64,SSEC-RIG,2013-09-19 19:00:00,
2013-09-19 14:05:00,81.8,70.2,29.80,SSW,197,13.7,19.7,67,0.00,,,0.64,SSEC-RIG,2013-09-19 19:05:00,
2013-09-19 14:10:00,82.0,70.0,29.80,SSW,198,15.6,20.4,66,0.00,,,0.64,SSEC-RIG,2013-09-19 19:10:00,
2013-09-19 14:15:00,82.2,70.2,29.79,SSW,195,15.1,23.1,66,0.00,,,0.64,SSEC-RIG,2013-09-19 19:15:00,
2013-09-19 14:20:00,82.4,69.9,29.79,SSW,195,16.7,23.0,65,0.00,,,0.64,SSEC-RIG,2013-09-19 19:20:00,
2013-09-19 14:25:00,82.6,69.7,29.79,SSW,195,17.1,23.8,64,0.00,,,0.64,SSEC-RIG,2013-09-19 19:25:00,
2013-09-19 14:30:00,82.5,69.9,29.79,South,191,14.6,21.6,65,0.00,,,0.64,SSEC-RIG,2013-09-19 19:30:00,
2013-09-19 14:35:00,82.4,69.7,29.78,SSW,198,16.9,21.7,65,0.00,,,0.64,SSEC-RIG,2013-09-19 19:35:00,
2013-09-19 14:40:00,82.6,69.7,29.78,SSW,197,13.7,20.5,64,0.00,,,0.64,SSEC-RIG,2013-09-19 19:40:00,
2013-09-19 14:45:00,82.8,70.0,29.78,South,183,15.4,23.1,64,0.00,,,0.64,SSEC-RIG,2013-09-19 19:45:00,
2013-09-19 14:50:00,82.9,70.0,29.77,South,182,16.5,21.1,64,0.00,,,0.64,SSEC-RIG,2013-09-19 19:50:00,
2013-09-19 14:55:00,83.3,69.9,29.77,South,182,16.1,23.3,63,0.00,,,0.64,SSEC-RIG,2013-09-19 19:55:00,
2013-09-19 15:00:00,83.8,70.2,29.77,South,186,13.2,21.9,63,0.00,,,0.64,SSEC-RIG,2013-09-19 20:00:00,
2013-09-19 15:05:00,84.2,68.9,29.76,SSW,202,15.2,22.8,59,0.00,,,0.64,SSEC-RIG,2013-09-19 20:05:00,
2013-09-19 15:15:00,84.8,68.4,29.76,SSW,208,13.8,22.1,57,0.00,,,0.64,SSEC-RIG,2013-09-19 20:15:00,
2013-09-19 15:20:00,85.0,68.5,29.76,SSW,207,14.5,18.2,57,0.00,,,0.64,SSEC-RIG,2013-09-19 20:20:00,
2013-09-19 15:25:00,85.1,68.3,29.75,SSW,193,14.9,20.6,56,0.00,,,0.64,SSEC-RIG,2013-09-19 20:25:00,
2013-09-19 15:35:00,85.2,67.7,29.75,SSW,200,19.3,26.7,55,0.00,,,0.64,SSEC-RIG,2013-09-19 20:35:00,
2013-09-19 15:40:00,85.2,67.7,29.74,SSW,207,20.7,26.3,55,0.00,,,0.64,SSEC-RIG,2013-09-19 20:40:00,
2013-09-19 15:45:00,85.4,67.9,29.74,SSW,200,17.9,21.3,55,0.00,,,0.64,SSEC-RIG,2013-09-19 20:45:00,
2013-09-19 15:50:00,85.7,68.2,29.73,South,186,13.1,24.7,55,0.00,,,0.64,SSEC-RIG,2013-09-19 20:50:00,
2013-09-19 15:55:00,85.6,68.1,29.73,SSW,194,18.7,25.1,55,0.00,,,0.64,SSEC-RIG,2013-09-19 20:55:00,
2013-09-19 16:00:00,85.5,68.1,29.72,SSW,197,18.8,26.5,55,0.00,,,0.64,SSEC-RIG,2013-09-19 21:00:00,
2013-09-19 16:05:00,85.6,68.0,29.72,SSW,192,19.9,27.2,55,0.00,,,0.64,SSEC-RIG,2013-09-19 21:05:00,
2013-09-19 16:10:00,85.8,68.0,29.72,SSW,194,20.0,28.7,55,0.00,,,0.64,SSEC-RIG,2013-09-19 21:10:00,
2013-09-19 16:15:00,85.8,68.0,29.72,SSW,200,18.0,25.8,55,0.00,,,0.64,SSEC-RIG,2013-09-19 21:15:00,
2013-09-19 16:20:00,85.9,67.9,29.72,SSW,202,18.2,23.9,54,0.00,,,0.64,SSEC-RIG,2013-09-19 21:20:00,
2013-09-19 16:25:00,86.1,68.3,29.73,SSW,196,14.3,22.3,55,0.00,,,0.64,SSEC-RIG,2013-09-19 21:25:00,
2013-09-19 16:30:00,86.1,67.9,29.73,SSW,198,17.5,22.9,54,0.00,,,0.64,SSEC-RIG,2013-09-19 21:30:00,
2013-09-19 16:35:00,86.1,68.0,29.72,SSW,194,15.1,24.1,54,0.00,,,0.64,SSEC-RIG,2013-09-19 21:35:00,
2013-09-19 16:40:00,85.6,68.0,29.72,SSW,204,14.9,23.2,55,0.00,,,0.64,SSEC-RIG,2013-09-19 21:40:00,
2013-09-19 16:45:00,85.5,67.9,29.72,SSW,195,16.6,23.4,55,0.00,,,0.64,SSEC-RIG,2013-09-19 21:45:00,
2013-09-19 16:50:00,85.3,68.0,29.70,South,190,15.3,20.7,56,0.00,,,0.64,SSEC-RIG,2013-09-19 21:50:00,
2013-09-19 16:55:00,85.1,68.2,29.70,South,189,13.8,19.2,56,0.00,,,0.64,SSEC-RIG,2013-09-19 21:55:00,
2013-09-19 17:00:00,85.1,68.1,29.71,SSW,198,13.6,18.6,56,0.00,,,0.64,SSEC-RIG,2013-09-19 22:00:00,
2013-09-19 17:05:00,85.0,68.0,29.71,SSW,203,12.8,17.0,56,0.00,,,0.64,SSEC-RIG,2013-09-19 22:05:00,
2013-09-19 17:10:00,84.8,68.0,29.71,SSW,211,12.1,-999.0,56,0.00,,,0.64,SSEC-RIG,2013-09-19 22:10:00,
2013-09-19 17:15:00,84.7,68.1,29.72,WSW,238,11.1,-999.0,57,0.00,,,0.64,SSEC-RIG,2013-09-19 22:15:00,
2013-09-19 17:20:00,80.9,64.7,29.72,WNW,303,31.5,41.4,57,0.00,,,0.64,SSEC-RIG,2013-09-19 22:20:00,
2013-09-19 17:25:00,75.4,64.8,29.73,WNW,291,28.6,40.0,69,0.00,,,0.64,SSEC-RIG,2013-09-19 22:25:00,
2013-09-19 17:30:00,72.4,64.3,29.75,WNW,294,17.6,28.2,75,0.10,,,0.74,SSEC-RIG,2013-09-19 22:30:00,
2013-09-19 17:35:00,69.8,64.9,29.76,WNW,292,21.9,29.0,83,0.11,,,0.85,SSEC-RIG,2013-09-19 22:35:00,
2013-09-19 17:40:00,67.8,65.1,29.76,WNW,292,19.6,27.5,90,0.27,,,1.13,SSEC-RIG,2013-09-19 22:40:00,
2013-09-19 17:45:00,67.1,65.6,29.79,WSW,247,25.8,40.9,94,0.37,,,1.51,SSEC-RIG,2013-09-19 22:45:00,
2013-09-19 17:50:00,68.1,66.4,29.77,WSW,256,34.6,46.1,93,0.25,,,1.80,SSEC-RIG,2013-09-19 22:50:00,
2013-09-19 17:55:00,67.7,66.0,29.77,WSW,250,27.7,35.3,93,0.23,,,2.04,SSEC-RIG,2013-09-19 22:55:00,
2013-09-19 18:00:00,67.4,65.8,29.78,WSW,237,19.0,27.9,94,0.09,,,2.14,SSEC-RIG,2013-09-19 23:00:00,
2013-09-19 18:05:00,67.5,65.7,29.78,SW,219,20.5,25.3,93,0.01,,,2.15,SSEC-RIG,2013-09-19 23:05:00,
2013-09-19 18:10:00,67.8,65.4,29.77,SW,215,15.4,20.5,91,0.00,,,2.15,SSEC-RIG,2013-09-19 23:10:00,
2013-09-19 18:15:00,68.4,64.6,29.77,SW,216,14.2,17.9,86,0.00,,,2.15,SSEC-RIG,2013-09-19 23:15:00,
2013-09-19 18:20:00,69.0,63.6,29.77,SW,215,13.1,17.8,82,0.00,,,2.15,SSEC-RIG,2013-09-19 23:20:00,
2013-09-19 18:25:00,68.8,63.3,29.76,SSW,206,9.9,-999.0,82,0.00,,,2.15,SSEC-RIG,2013-09-19 23:25:00,
2013-09-19 18:30:00,68.8,63.0,29.75,SW,218,9.6,-999.0,81,0.00,,,2.15,SSEC-RIG,2013-09-19 23:30:00,
2013-09-19 18:35:00,68.7,62.9,29.75,SW,218,11.6,-999.0,81,0.00,,,2.15,SSEC-RIG,2013-09-19 23:35:00,
2013-09-19 18:40:00,68.6,62.7,29.75,WSW,241,9.6,-999.0,81,0.00,,,2.15,SSEC-RIG,2013-09-19 23:40:00,
2013-09-19 18:45:00,68.6,62.9,29.75,West,277,8.7,-999.0,81,0.00,,,2.15,SSEC-RIG,2013-09-19 23:45:00,
2013-09-19 18:50:00,68.8,63.0,29.75,West,278,8.3,-999.0,81,0.00,,,2.15,SSEC-RIG,2013-09-19 23:50:00,
2013-09-19 18:55:00,68.8,63.0,29.76,WSW,258,5.9,-999.0,81,0.00,,,2.15,SSEC-RIG,2013-09-19 23:55:00,
2013-09-19 19:00:00,69.0,63.1,29.76,West,263,5.5,-999.0,81,0.00,,,2.15,SSEC-RIG,2013-09-20 00:00:00,
2013-09-19 19:05:00,69.1,63.1,29.75,West,281,5.0,-999.0,80,0.00,,,0.00,SSEC-RIG,2013-09-20 00:05:00,
2013-09-19 19:10:00,69.0,63.3,29.75,NW,324,3.7,-999.0,81,0.00,,,0.00,SSEC-RIG,2013-09-20 00:10:00,
2013-09-19 19:15:00,68.5,63.5,29.75,North,357,3.5,-999.0,83,0.00,,,0.00,SSEC-RIG,2013-09-20 00:15:00,
2013-09-19 19:20:00,68.3,63.1,29.75,North,352,4.4,-999.0,83,0.00,,,0.00,SSEC-RIG,2013-09-20 00:20:00,
2013-09-19 19:25:00,68.8,63.1,29.74,West,280,1.7,-999.0,81,0.00,,,0.00,SSEC-RIG,2013-09-20 00:25:00,
2013-09-19 19:30:00,69.4,64.8,29.75,SE,139,5.9,-999.0,84,0.00,,,0.00,SSEC-RIG,2013-09-20 00:30:00,
2013-09-19 19:35:00,69.0,65.2,29.75,SSE,167,1.8,-999.0,87,0.00,,,0.00,SSEC-RIG,2013-09-20 00:35:00,
2013-09-19 19:40:00,69.5,63.9,29.74,South,170,1.9,-999.0,82,0.00,,,0.00,SSEC-RIG,2013-09-20 00:40:00,
2013-09-19 19:45:00,69.4,66.0,29.74,SE,144,7.9,-999.0,88,0.00,,,0.00,SSEC-RIG,2013-09-20 00:45:00,
2013-09-19 19:50:00,68.4,63.8,29.74,SSE,165,6.3,-999.0,84,0.00,,,0.00,SSEC-RIG,2013-09-20 00:50:00,
2013-09-19 19:55:00,68.3,63.7,29.74,South,169,9.5,-999.0,84,0.00,,,0.00,SSEC-RIG,2013-09-20 00:55:00,
2013-09-19 20:00:00,68.6,63.5,29.74,South,172,8.5,-999.0,83,0.00,,,0.00,SSEC-RIG,2013-09-20 01:00:00,
2013-09-19 20:05:00,68.6,63.7,29.74,SSE,161,7.4,-999.0,83,0.00,,,0.00,SSEC-RIG,2013-09-20 01:05:00,
2013-09-19 20:10:00,68.4,63.8,29.74,SSE,164,8.3,-999.0,84,0.00,,,0.00,SSEC-RIG,2013-09-20 01:10:00,
2013-09-19 20:15:00,68.4,65.1,29.76,SSE,152,7.7,-999.0,88,0.00,,,0.00,SSEC-RIG,2013-09-20 01:15:00,
2013-09-19 20:20:00,68.3,64.9,29.76,SSE,168,2.6,-999.0,88,0.00,,,0.00,SSEC-RIG,2013-09-20 01:20:00,
2013-09-19 20:25:00,68.3,64.5,29.78,NW,311,3.1,-999.0,87,0.00,,,0.00,SSEC-RIG,2013-09-20 01:25:00,
2013-09-19 20:30:00,68.3,64.4,29.79,NW,305,10.5,-999.0,86,0.00,,,0.00,SSEC-RIG,2013-09-20 01:30:00,
2013-09-19 20:35:00,68.1,64.5,29.79,NW,326,12.4,-999.0,87,0.03,,,0.03,SSEC-RIG,2013-09-20 01:35:00,
2013-09-19 20:40:00,67.5,64.6,29.78,NNW,339,17.1,21.8,89,0.01,,,0.04,SSEC-RIG,2013-09-20 01:40:00,
2013-09-19 20:50:00,67.6,65.1,29.78,North,3,11.6,-999.0,90,0.00,,,0.04,SSEC-RIG,2013-09-20 01:50:00,
2013-09-19 20:55:00,67.6,65.0,29.77,NNE,19,10.6,-999.0,90,0.00,,,0.04,SSEC-RIG,2013-09-20 01:55:00,
2013-09-19 21:00:00,68.1,65.1,29.77,NE,39,8.1,-999.0,89,0.01,,,0.05,SSEC-RIG,2013-09-20 02:00:00,
2013-09-19 21:05:00,68.2,64.9,29.76,NE,39,8.0,-999.0,88,0.00,,,0.05,SSEC-RIG,2013-09-20 02:05:00,
2013-09-19 21:10:00,67.9,65.3,29.79,NNE,25,2.3,-999.0,91,0.00,,,0.05,SSEC-RIG,2013-09-20 02:10:00,
2013-09-19 21:15:00,67.7,65.4,29.82,WSW,237,16.4,23.8,91,0.03,,,0.08,SSEC-RIG,2013-09-20 02:15:00,
2013-09-19 21:20:00,67.3,65.8,29.80,SSE,160,5.8,-999.0,94,0.06,,,0.14,SSEC-RIG,2013-09-20 02:20:00,
2013-09-19 21:25:00,67.3,66.1,29.79,SE,144,7.8,-999.0,95,0.01,,,0.15,SSEC-RIG,2013-09-20 02:25:00,
2013-09-19 21:30:00,67.6,66.8,29.79,SE,133,6.2,16.9,96,0.00,,,0.15,SSEC-RIG,2013-09-20 02:30:00,
2013-09-19 21:35:00,67.7,67.0,29.78,SE,136,10.1,-999.0,97,0.01,,,0.16,SSEC-RIG,2013-09-20 02:35:00,
2013-09-19 21:40:00,67.4,66.8,29.78,SE,125,10.3,-999.0,97,0.00,,,0.16,SSEC-RIG,2013-09-20 02:40:00,
2013-09-19 21:45:00,67.3,66.8,29.76,East,95,9.0,-999.0,97,0.00,,,0.16,SSEC-RIG,2013-09-20 02:45:00,
2013-09-19 21:50:00,67.3,66.8,29.75,East,85,9.4,-999.0,97,0.00,,,0.16,SSEC-RIG,2013-09-20 02:50:00,
2013-09-19 21:55:00,66.9,66.3,29.75,East,82,7.8,-999.0,97,0.00,,,0.16,SSEC-RIG,2013-09-20 02:55:00,
2013-09-19 22:00:00,67.3,66.6,29.74,East,96,6.6,-999.0,96,0.01,,,0.17,SSEC-RIG,2013-09-20 03:00:00,
2013-09-19 22:05:00,67.7,66.9,29.74,East,100,8.7,-999.0,96,0.00,,,0.17,SSEC-RIG,2013-09-20 03:05:00,
2013-09-19 22:10:00,67.9,67.1,29.74,ESE,111,7.9,-999.0,96,0.00,,,0.17,SSEC-RIG,2013-09-20 03:10:00,
2013-09-19 22:15:00,67.5,66.9,29.74,ESE,112,10.0,-999.0,97,0.00,,,0.17,SSEC-RIG,2013-09-20 03:15:00,
2013-09-19 22:25:00,67.5,67.0,29.74,ESE,122,10.1,-999.0,97,0.00,,,0.17,SSEC-RIG,2013-09-20 03:25:00,
2013-09-19 22:30:00,67.4,67.0,29.75,SE,127,9.4,-999.0,97,0.00,,,0.17,SSEC-RIG,2013-09-20 03:30:00,
2013-09-19 22:35:00,67.4,66.9,29.75,SE,140,8.6,-999.0,97,0.00,,,0.17,SSEC-RIG,2013-09-20 03:35:00,
2013-09-19 22:40:00,66.7,66.1,29.76,SSE,159,9.7,-999.0,97,0.00,,,0.17,SSEC-RIG,2013-09-20 03:40:00,
2013-09-19 22:45:00,66.5,65.8,29.76,South,175,10.6,-999.0,96,0.00,,,0.17,SSEC-RIG,2013-09-20 03:45:00,
2013-09-19 22:50:00,66.4,65.7,29.77,South,188,8.4,-999.0,96,0.00,,,0.17,SSEC-RIG,2013-09-20 03:50:00,
2013-09-19 22:55:00,66.4,65.8,29.77,SSW,207,10.7,-999.0,97,0.00,,,0.17,SSEC-RIG,2013-09-20 03:55:00,
2013-09-19 23:00:00,66.4,65.8,29.77,SSW,203,11.4,-999.0,97,0.00,,,0.17,SSEC-RIG,2013-09-20 04:00:00,
2013-09-19 23:05:00,66.3,65.8,29.77,SSW,199,11.5,-999.0,97,0.00,,,0.17,SSEC-RIG,2013-09-20 04:05:00,
2013-09-19 23:10:00,66.3,65.8,29.77,SSW,208,10.7,-999.0,97,0.00,,,0.17,SSEC-RIG,2013-09-20 04:10:00,
2013-09-19 23:15:00,66.3,65.8,29.78,SW,222,11.7,-999.0,97,0.00,,,0.17,SSEC-RIG,2013-09-20 04:15:00,
2013-09-19 23:20:00,66.4,65.8,29.78,SW,226,13.6,-999.0,97,0.00,,,0.17,SSEC-RIG,2013-09-20 04:20:00,
2013-09-19 23:25:00,66.5,65.8,29.78,SW,229,12.7,16.0,97,0.00,,,0.17,SSEC-RIG,2013-09-20 04:25:00,
2013-09-19 23:30:00,66.5,65.8,29.77,WSW,240,9.7,-999.0,97,0.00,,,0.17,SSEC-RIG,2013-09-20 04:30:00,
2013-09-19 23:35:00,66.5,65.9,29.77,SW,233,9.3,-999.0,97,0.00,,,0.17,SSEC-RIG,2013-09-20 04:35:00,
2013-09-19 23:40:00,66.5,66.0,29.76,SW,234,8.8,-999.0,97,0.00,,,0.17,SSEC-RIG,2013-09-20 04:40:00,
2013-09-19 23:45:00,66.5,66.1,29.76,SW,229,9.1,-999.0,97,0.00,,,0.17,SSEC-RIG,2013-09-20 04:45:00,
2013-09-19 23:50:00,66.5,66.1,29.75,SW,228,9.2,-999.0,98,0.00,,,0.17,SSEC-RIG,2013-09-20 04:50:00,
2013-09-19 23:55:00,66.6,66.2,29.75,SW,231,9.2,-999.0,98,0.00,,,0.17,SSEC-RIG,2013-09-20 04:55:00,